createdAt,value
2023-01-12T00:01:39.929Z,1.55
2023-01-12T00:04:07.263Z,1.58
2023-01-12T00:06:34.641Z,2.20
2023-01-12T00:09:04.415Z,1.30
2023-01-12T00:11:31.199Z,1.10
2023-01-12T00:13:58.573Z,0.98
2023-01-12T00:16:35.632Z,1.50
2023-01-12T00:19:03.438Z,1.98
2023-01-12T00:21:34.280Z,1.85
2023-01-12T00:24:00.976Z,1.13
2023-01-12T00:26:27.608Z,1.30
2023-01-12T00:28:54.432Z,1.25
2023-01-12T00:31:21.124Z,1.58
2023-01-12T00:33:47.784Z,1.13
2023-01-12T00:36:17.590Z,0.95
2023-01-12T00:38:44.549Z,1.58
2023-01-12T00:41:33.084Z,1.70
2023-01-12T00:44:18.452Z,1.50
2023-01-12T00:46:45.151Z,1.35
2023-01-12T00:49:11.824Z,1.10
2023-01-12T00:51:38.536Z,1.50
2023-01-12T00:54:08.100Z,1.23
2023-01-12T00:56:36.044Z,1.17
2023-01-12T00:59:03.262Z,1.70
2023-01-12T01:01:30.437Z,1.30
2023-01-12T01:03:57.188Z,1.50
2023-01-12T01:06:24.120Z,1.40
2023-01-12T01:08:50.816Z,1.27
2023-01-12T01:11:17.919Z,1.10
2023-01-12T01:13:45.885Z,1.30
2023-01-12T01:16:16.123Z,1.25
2023-01-12T01:18:43.168Z,1.33
2023-01-12T01:21:11.128Z,1.17
2023-01-12T01:23:39.021Z,1.27
2023-01-12T01:26:11.056Z,1.45
2023-01-12T01:28:37.732Z,1.48
2023-01-12T01:31:12.293Z,1.70
2023-01-12T01:33:39.559Z,1.65
2023-01-12T01:36:06.919Z,1.63
2023-01-12T01:38:33.691Z,1.52
2023-01-12T01:41:00.462Z,1.50
2023-01-12T01:43:29.188Z,1.38
2023-01-12T01:46:05.977Z,1.20
2023-01-12T01:48:36.752Z,1.08
2023-01-12T01:51:08.511Z,1.92
2023-01-12T01:53:37.611Z,1.70
2023-01-12T01:56:18.154Z,2.15
2023-01-12T01:58:54.018Z,1.45
2023-01-12T02:01:20.902Z,1.80
2023-01-12T02:03:48.275Z,1.15
2023-01-12T02:14:01.855Z,1.50
2023-01-12T02:16:30.495Z,1.27
2023-01-12T02:19:04.343Z,1.88
2023-01-12T02:22:04.511Z,1.25
2023-01-12T02:25:01.833Z,1.30
2023-01-12T02:27:49.570Z,1.88
2023-01-12T02:30:37.913Z,1.30
2023-01-12T02:33:32.247Z,1.60
2023-01-12T02:36:17.762Z,1.60
2023-01-12T02:38:48.290Z,1.77
2023-01-12T02:41:50.552Z,1.40
2023-01-12T02:44:33.192Z,2.05
2023-01-12T02:47:03.663Z,1.33
2023-01-12T02:49:35.645Z,1.42
2023-01-12T02:52:09.279Z,1.40
2023-01-12T02:54:37.417Z,1.20
2023-01-12T02:57:07.528Z,1.67
2023-01-12T02:59:37.435Z,1.08
2023-01-12T03:02:14.982Z,1.40
2023-01-12T03:04:41.926Z,1.48
2023-01-12T03:07:28.993Z,1.25
2023-01-12T03:10:12.651Z,1.35
2023-01-12T03:12:41.393Z,1.67
2023-01-12T03:15:09.564Z,1.17
2023-01-12T03:17:49.021Z,1.75
2023-01-12T03:20:26.586Z,1.23
2023-01-12T03:22:59.232Z,1.17
2023-01-12T03:27:56.270Z,0.95
2023-01-12T03:30:37.575Z,1.02
2023-01-12T03:33:05.296Z,1.20
2023-01-12T03:35:43.547Z,1.33
2023-01-12T03:38:24.278Z,1.38
2023-01-12T03:41:00.322Z,1.25
2023-01-12T03:43:38.524Z,1.65
2023-01-12T03:46:13.264Z,1.50
2023-01-12T03:49:06.243Z,1.40
2023-01-12T03:51:37.757Z,1.48
2023-01-12T03:54:08.307Z,1.85
2023-01-12T03:56:36.233Z,1.65
2023-01-12T03:59:04.222Z,1.67
2023-01-12T04:01:31.699Z,1.80
2023-01-12T04:03:58.371Z,1.60
2023-01-12T04:06:24.988Z,1.50
2023-01-12T04:08:51.636Z,1.75
2023-01-12T04:11:36.738Z,1.50
2023-01-12T04:14:03.441Z,1.70
2023-01-12T04:16:30.126Z,1.50
2023-01-12T04:18:56.827Z,1.77
2023-01-12T04:21:42.593Z,1.85
2023-01-12T04:24:09.191Z,1.80
2023-01-12T04:26:35.799Z,1.63
2023-01-12T04:29:02.510Z,2.00
2023-01-12T04:31:29.141Z,1.65
2023-01-12T04:33:55.848Z,1.55
2023-01-12T04:36:22.536Z,1.63
2023-01-12T04:38:49.160Z,1.52
2023-01-12T04:41:15.778Z,1.83
2023-01-12T04:43:42.421Z,1.83
2023-01-12T04:46:10.691Z,1.40
2023-01-12T04:48:39.193Z,1.40
2023-01-12T04:51:06.207Z,1.60
2023-01-12T04:53:32.857Z,1.50
2023-01-12T04:56:04.178Z,1.48
2023-01-12T04:58:30.843Z,1.45
2023-01-12T05:00:57.660Z,1.65
2023-01-12T05:03:24.571Z,1.60
2023-01-12T05:05:51.262Z,1.45
2023-01-12T05:08:36.508Z,1.38
2023-01-12T05:11:03.240Z,1.92
2023-01-12T05:13:31.485Z,1.13
2023-01-12T05:16:08.559Z,1.50
2023-01-12T05:18:35.229Z,2.00
2023-01-12T05:21:01.947Z,1.65
2023-01-12T05:23:28.624Z,1.60
2023-01-12T05:25:59.484Z,1.52
2023-01-12T05:28:27.083Z,1.65
2023-01-12T05:30:54.182Z,1.77
2023-01-12T05:33:21.091Z,1.45
2023-01-12T05:35:47.778Z,1.83
2023-01-12T05:38:14.473Z,1.65
2023-01-12T05:40:41.162Z,1.50
2023-01-12T05:43:30.797Z,1.85
2023-01-12T05:45:57.865Z,2.10
2023-01-12T05:48:24.622Z,1.88
2023-01-12T05:50:51.235Z,2.08
2023-01-12T05:53:17.851Z,1.90
2023-01-12T05:55:44.514Z,1.20
2023-01-12T05:58:11.174Z,1.80
2023-01-12T06:00:37.918Z,1.73
2023-01-12T06:03:04.602Z,1.60
2023-01-12T06:05:31.248Z,1.65
2023-01-12T06:07:58.857Z,1.45
2023-01-12T06:10:25.582Z,1.27
2023-01-12T06:13:10.967Z,1.90
2023-01-12T06:15:37.721Z,1.88
2023-01-12T06:18:04.989Z,1.45
2023-01-12T06:20:32.059Z,1.50
2023-01-12T06:23:02.921Z,1.48
2023-01-12T06:25:30.051Z,1.55
2023-01-12T06:27:56.993Z,1.67
2023-01-12T06:30:23.997Z,1.63
2023-01-12T06:32:50.612Z,1.77
2023-01-12T06:35:19.568Z,1.70
2023-01-12T06:37:46.537Z,1.27
2023-01-12T06:40:13.541Z,1.70
2023-01-12T06:42:42.043Z,1.58
2023-01-12T06:45:09.676Z,1.60
2023-01-12T06:47:46.308Z,1.17
2023-01-12T06:50:13.139Z,1.35
2023-01-12T06:52:39.787Z,2.40
2023-01-12T06:55:06.707Z,1.70
2023-01-12T06:57:33.598Z,1.27
2023-01-12T07:00:00.224Z,1.95
2023-01-12T07:02:26.884Z,1.40
2023-01-12T07:04:53.592Z,1.30
2023-01-12T07:07:20.267Z,1.30
2023-01-12T07:09:46.900Z,1.42
2023-01-12T07:12:13.560Z,1.50
2023-01-12T07:14:40.217Z,1.80
2023-01-12T07:17:06.901Z,0.90
2023-01-12T07:19:33.513Z,1.83
2023-01-12T07:22:00.181Z,1.42
2023-01-12T07:24:26.821Z,1.15
2023-01-12T07:26:53.881Z,1.48
2023-01-12T07:29:20.518Z,1.45
2023-01-12T07:31:48.946Z,1.35
2023-01-12T07:34:16.429Z,1.40
2023-01-12T07:36:43.136Z,1.85
2023-01-12T07:39:11.976Z,1.58
2023-01-12T07:41:57.028Z,0.80
2023-01-12T07:44:23.708Z,0.98
2023-01-12T07:46:50.390Z,1.20
2023-01-12T07:49:17.105Z,1.05
2023-01-12T07:51:43.724Z,1.35
2023-01-12T07:54:10.363Z,2.20
2023-01-12T07:56:37.235Z,1.30
2023-01-12T07:59:04.274Z,1.00
2023-01-12T08:01:32.499Z,1.30
2023-01-12T08:03:59.305Z,1.33
2023-01-12T08:06:25.982Z,1.20
2023-01-12T08:08:54.570Z,1.20
2023-01-12T08:11:22.923Z,1.40
2023-01-12T08:13:54.300Z,1.55
2023-01-12T08:16:27.229Z,1.10
2023-01-12T08:19:05.475Z,1.15
2023-01-12T08:21:45.977Z,0.95
2023-01-12T08:24:21.810Z,0.88
2023-01-12T08:26:54.782Z,1.13
2023-01-12T08:29:31.784Z,1.10
2023-01-12T08:34:35.351Z,0.77
2023-01-12T08:37:05.918Z,0.88
2023-01-12T08:39:35.226Z,0.80
2023-01-12T08:42:02.413Z,0.85
2023-01-12T08:44:34.426Z,0.90
2023-01-12T08:47:01.645Z,0.70
2023-01-12T08:49:30.247Z,0.63
2023-01-12T08:51:57.801Z,0.77
2023-01-12T08:54:24.902Z,0.60
2023-01-12T08:56:51.619Z,0.73
2023-01-12T08:59:19.213Z,0.60
2023-01-12T09:01:46.114Z,0.80
2023-01-12T09:04:12.929Z,0.50
2023-01-12T09:06:41.992Z,0.70
2023-01-12T09:09:11.292Z,0.65
2023-01-12T09:11:39.276Z,0.40
2023-01-12T09:14:06.371Z,0.75
2023-01-12T09:16:34.059Z,0.70
2023-01-12T09:19:01.364Z,0.70
2023-01-12T09:21:30.390Z,0.65
2023-01-12T09:23:57.252Z,0.82
2023-01-12T09:26:28.110Z,0.70
2023-01-12T09:28:56.869Z,0.88
2023-01-12T09:31:23.680Z,0.60
2023-01-12T09:33:50.454Z,0.50
2023-01-12T09:36:27.777Z,0.65
2023-01-12T09:38:54.972Z,0.70
2023-01-12T09:41:44.652Z,0.50
2023-01-12T09:44:37.575Z,0.50
2023-01-12T09:47:08.575Z,0.68
2023-01-12T09:49:40.748Z,0.57
2023-01-12T09:52:19.633Z,0.40
2023-01-12T09:57:46.079Z,0.32
2023-01-12T10:00:17.995Z,0.88
2023-01-12T10:03:00.297Z,0.60
2023-01-12T10:05:45.962Z,0.50
2023-01-12T10:08:18.471Z,0.38
2023-01-12T10:13:17.247Z,0.50
2023-01-12T10:15:53.548Z,0.40
2023-01-12T10:18:44.307Z,0.38
2023-01-12T10:21:12.275Z,0.43
2023-01-12T10:23:38.942Z,0.40
2023-01-12T10:26:21.750Z,0.50
2023-01-12T10:28:52.363Z,0.70
2023-01-12T10:31:21.773Z,0.50
2023-01-12T10:34:07.325Z,0.45
2023-01-12T10:36:36.848Z,0.35
2023-01-12T10:39:06.092Z,0.60
2023-01-12T10:41:34.685Z,0.40
2023-01-12T10:44:14.047Z,0.30
2023-01-12T10:46:40.872Z,0.38
2023-01-12T10:49:24.370Z,0.40
2023-01-12T10:51:58.377Z,0.60
2023-01-12T10:54:31.425Z,0.45
2023-01-12T10:57:03.843Z,0.55
2023-01-12T10:59:33.109Z,0.50
2023-01-12T11:02:06.942Z,0.50
2023-01-12T11:04:47.728Z,0.30
2023-01-12T11:07:18.945Z,0.45
2023-01-12T11:09:46.499Z,0.50
2023-01-12T11:12:25.262Z,0.82
2023-01-12T11:15:02.642Z,0.82
2023-01-12T11:18:02.959Z,0.88
2023-01-12T11:21:00.296Z,0.30
2023-01-12T11:24:12.192Z,0.47
2023-01-12T11:26:54.787Z,0.45
2023-01-12T11:29:57.969Z,0.40
2023-01-12T11:32:30.949Z,0.40
2023-01-12T11:35:19.739Z,0.50
2023-01-12T11:37:46.782Z,0.40
2023-01-12T11:40:26.313Z,0.57
2023-01-12T11:43:14.941Z,0.73
2023-01-12T11:45:52.070Z,0.52
2023-01-12T11:48:43.994Z,0.30
2023-01-12T11:51:13.292Z,0.32
2023-01-12T11:53:41.591Z,0.40
2023-01-12T11:56:18.225Z,0.30
2023-01-12T11:59:17.003Z,0.50
2023-01-12T12:01:49.286Z,0.45
2023-01-12T12:04:36.245Z,0.43
2023-01-12T12:07:32.182Z,0.50
2023-01-12T12:10:13.751Z,0.40
2023-01-12T12:12:52.342Z,0.50
2023-01-12T12:15:56.563Z,0.32
2023-01-12T12:19:07.647Z,0.68
2023-01-12T12:21:46.065Z,0.55
2023-01-12T12:24:43.640Z,0.60
2023-01-12T12:27:41.247Z,0.55
2023-01-12T12:30:29.666Z,0.50
2023-01-12T12:33:22.075Z,0.50
2023-01-12T12:36:01.065Z,0.65
2023-01-12T12:39:05.595Z,0.30
2023-01-12T12:41:59.947Z,0.40
2023-01-12T12:45:11.228Z,0.32
2023-01-12T12:48:16.731Z,0.57
2023-01-12T12:50:58.741Z,0.68
2023-01-12T12:53:36.530Z,0.50
2023-01-12T12:56:09.062Z,0.50
2023-01-12T12:58:46.060Z,0.43
2023-01-12T13:01:24.516Z,0.25
2023-01-12T13:03:59.155Z,0.30
2023-01-12T13:06:43.754Z,0.20
2023-01-12T13:09:16.529Z,0.40
2023-01-12T13:11:58.996Z,0.40
2023-01-12T13:14:31.494Z,0.63
2023-01-12T13:17:02.133Z,0.28
2023-01-12T13:19:41.037Z,0.50
2023-01-12T13:22:42.512Z,0.50
2023-01-12T13:25:22.164Z,0.38
2023-01-12T13:28:01.033Z,0.60
2023-01-12T13:33:15.858Z,0.90
2023-01-12T13:35:46.244Z,0.40
2023-01-12T13:38:33.899Z,0.40
2023-01-12T13:41:56.438Z,0.60
2023-01-12T13:44:34.422Z,0.50
2023-01-12T13:47:10.416Z,0.75
2023-01-12T13:49:47.244Z,0.50
2023-01-12T13:52:30.193Z,0.70
2023-01-12T13:54:56.956Z,1.05
2023-01-12T13:57:25.876Z,1.02
2023-01-12T14:00:04.329Z,0.60
2023-01-12T14:02:32.752Z,0.60
2023-01-12T14:05:17.906Z,0.95
2023-01-12T14:07:57.903Z,1.10
2023-01-12T14:10:46.795Z,0.70
2023-01-12T14:13:50.152Z,0.65
2023-01-12T14:16:36.008Z,0.80
2023-01-12T14:19:18.589Z,0.73
2023-01-12T14:22:00.441Z,0.60
2023-01-12T14:24:27.077Z,0.70
2023-01-12T14:26:53.894Z,0.57
2023-01-12T14:29:20.797Z,0.80
2023-01-12T14:31:54.456Z,0.80
2023-01-12T14:34:29.624Z,0.95
2023-01-12T14:36:56.893Z,0.90
2023-01-12T14:39:27.446Z,1.10
2023-01-12T14:42:14.147Z,1.00
2023-01-12T14:45:11.353Z,0.90
2023-01-12T14:47:38.772Z,0.65
2023-01-12T14:50:16.261Z,0.63
2023-01-12T14:52:45.180Z,1.10
2023-01-12T14:55:33.297Z,0.90
2023-01-12T14:58:05.213Z,0.80
2023-01-12T15:00:35.583Z,1.00
2023-01-12T15:03:17.401Z,0.73
2023-01-12T15:05:44.543Z,0.70
2023-01-12T15:08:11.283Z,0.60
2023-01-12T15:10:40.839Z,0.90
2023-01-12T15:13:25.149Z,0.85
2023-01-12T15:16:11.288Z,1.00
2023-01-12T15:18:56.710Z,1.02
2023-01-12T15:21:43.316Z,0.60
2023-01-12T15:24:49.819Z,0.80
2023-01-12T15:27:19.264Z,0.60
2023-01-12T15:29:46.318Z,0.70
2023-01-12T15:32:22.397Z,0.90
2023-01-12T15:34:50.273Z,0.63
2023-01-12T15:37:18.836Z,1.05
2023-01-12T15:39:46.784Z,0.60
2023-01-12T15:42:18.072Z,0.60
2023-01-12T15:44:45.819Z,0.70
2023-01-12T15:47:17.598Z,0.70
2023-01-12T15:49:48.524Z,0.95
2023-01-12T15:52:19.333Z,0.63
2023-01-12T15:54:45.975Z,0.68
2023-01-12T15:57:14.140Z,0.60
2023-01-12T15:59:40.959Z,0.45
2023-01-12T16:02:34.430Z,1.05
2023-01-12T16:05:05.469Z,0.88
2023-01-12T16:07:32.670Z,0.90
2023-01-12T16:09:59.325Z,0.80
2023-01-12T16:12:26.154Z,0.60
2023-01-12T16:14:52.842Z,0.90
2023-01-12T16:17:19.789Z,1.00
2023-01-12T16:19:46.449Z,0.73
2023-01-12T16:22:16.126Z,0.68
2023-01-12T16:24:43.886Z,0.85
2023-01-12T16:27:10.680Z,0.63
2023-01-12T16:29:37.678Z,0.68
2023-01-12T16:32:04.690Z,0.55
2023-01-12T16:34:31.559Z,0.57
2023-01-12T16:37:00.576Z,0.85
2023-01-12T16:39:27.894Z,0.50
2023-01-12T16:42:03.113Z,0.50
2023-01-12T16:44:37.284Z,0.55
2023-01-12T16:47:05.744Z,0.93
2023-01-12T16:49:35.923Z,1.35
2023-01-12T16:52:04.625Z,1.08
2023-01-12T16:54:31.297Z,0.88
2023-01-12T16:56:58.794Z,0.90
2023-01-12T16:59:26.685Z,0.52
2023-01-12T17:01:53.729Z,0.50
2023-01-12T17:04:20.486Z,0.70
2023-01-12T17:06:47.891Z,0.77
2023-01-12T17:09:15.638Z,0.68
2023-01-12T17:11:44.411Z,0.63
2023-01-12T17:14:24.449Z,0.80
2023-01-12T17:16:53.590Z,0.70
2023-01-12T17:19:20.801Z,0.80
2023-01-12T17:21:49.827Z,1.08
2023-01-12T17:24:18.378Z,0.90
2023-01-12T17:26:46.646Z,0.88
2023-01-12T17:29:13.392Z,1.73
2023-01-12T17:31:41.624Z,1.30
2023-01-12T17:34:12.209Z,1.10
2023-01-12T17:36:39.432Z,1.38
2023-01-12T17:39:06.636Z,1.50
2023-01-12T17:41:52.104Z,1.60
2023-01-12T17:44:18.956Z,1.33
2023-01-12T17:46:46.412Z,1.20
2023-01-12T17:49:13.403Z,1.25
2023-01-12T17:51:41.070Z,1.42
2023-01-12T17:54:10.779Z,0.77
2023-01-12T17:56:37.839Z,1.15
2023-01-12T17:59:05.457Z,1.30
2023-01-12T18:01:34.690Z,1.40
2023-01-12T18:04:02.319Z,1.52
2023-01-12T18:06:29.189Z,1.75
2023-01-12T18:08:57.200Z,1.75
2023-01-12T18:11:24.085Z,1.90
2023-01-12T18:13:50.932Z,1.88
2023-01-12T18:16:17.788Z,1.90
2023-01-12T18:18:44.838Z,2.00
2023-01-12T18:21:23.029Z,2.30
2023-01-12T18:23:51.229Z,1.92
2023-01-12T18:26:23.755Z,2.20
2023-01-12T18:31:20.521Z,2.63
2023-01-12T18:33:49.350Z,2.55
2023-01-12T18:36:19.121Z,2.95
2023-01-12T18:38:46.454Z,2.63
2023-01-12T18:41:31.917Z,2.63
2023-01-12T18:44:04.240Z,2.38
2023-01-12T18:46:49.931Z,2.45
2023-01-12T18:49:33.995Z,2.50
2023-01-12T18:52:19.644Z,2.60
2023-01-12T18:54:51.735Z,2.20
2023-01-12T18:57:21.360Z,2.22
2023-01-12T18:59:50.057Z,2.45
2023-01-12T19:02:18.029Z,1.90
2023-01-12T19:04:52.553Z,1.92
2023-01-12T19:07:50.390Z,2.17
2023-01-12T19:12:45.845Z,2.03
2023-01-12T19:15:32.069Z,2.10
2023-01-12T19:17:58.893Z,1.70
2023-01-12T19:20:30.041Z,1.95
2023-01-12T19:23:15.648Z,2.03
2023-01-12T19:26:01.126Z,1.92
2023-01-12T19:28:38.086Z,1.90
2023-01-12T19:31:07.518Z,1.90
2023-01-12T19:33:34.176Z,1.92
2023-01-12T19:36:06.573Z,1.33
2023-01-12T19:38:33.612Z,1.90
2023-01-12T19:41:12.327Z,1.90
2023-01-12T19:46:15.881Z,1.55
2023-01-12T19:48:42.626Z,1.85
2023-01-12T19:51:11.090Z,1.80
2023-01-12T19:53:39.390Z,1.42
2023-01-12T19:56:13.083Z,1.80
2023-01-12T19:58:40.041Z,1.83
2023-01-12T20:01:07.944Z,1.70
2023-01-12T20:03:35.164Z,1.38
2023-01-12T20:06:06.308Z,1.33
2023-01-12T20:08:33.083Z,1.52
2023-01-12T20:11:03.273Z,1.65
2023-01-12T20:13:32.500Z,1.50
2023-01-12T20:15:59.289Z,1.20
2023-01-12T20:18:26.080Z,1.25
2023-01-12T20:20:53.412Z,1.25
2023-01-12T20:23:20.286Z,1.20
2023-01-12T20:25:47.003Z,1.40
2023-01-12T20:28:14.404Z,1.10
2023-01-12T20:30:42.462Z,1.30
2023-01-12T20:33:10.257Z,1.15
2023-01-12T20:35:39.080Z,1.25
2023-01-12T20:38:15.444Z,1.20
2023-01-12T20:40:45.811Z,1.25
2023-01-12T20:43:13.327Z,1.25
2023-01-12T20:45:41.885Z,1.20
2023-01-12T20:48:09.163Z,1.10
2023-01-12T20:50:36.399Z,1.38
2023-01-12T20:53:03.334Z,1.05
2023-01-12T20:55:30.169Z,0.90
2023-01-12T20:57:56.913Z,1.10
2023-01-12T21:00:23.584Z,1.10
2023-01-12T21:02:50.224Z,1.33
2023-01-12T21:05:16.904Z,1.17
2023-01-12T21:07:43.626Z,1.08
2023-01-12T21:10:11.962Z,0.80
2023-01-12T21:12:38.671Z,1.40
2023-01-12T21:15:06.092Z,0.90
2023-01-12T21:17:32.831Z,0.80
2023-01-12T21:19:59.453Z,1.08
2023-01-12T21:22:26.080Z,1.10
2023-01-12T21:24:52.671Z,1.00
2023-01-12T21:27:19.330Z,0.90
2023-01-12T21:29:46.053Z,0.60
2023-01-12T21:32:12.950Z,0.75
2023-01-12T21:34:39.758Z,0.70
2023-01-12T21:37:07.587Z,0.70
2023-01-12T21:39:34.205Z,0.77
2023-01-12T21:42:19.538Z,0.60
2023-01-12T21:44:46.123Z,0.50
2023-01-12T21:47:12.828Z,0.40
2023-01-12T21:49:39.488Z,0.75
2023-01-12T21:52:06.160Z,0.45
2023-01-12T21:54:32.857Z,0.40
2023-01-12T21:56:59.704Z,0.40
2023-01-12T21:59:26.398Z,0.40
2023-01-12T22:01:53.173Z,0.32
2023-01-12T22:04:20.016Z,0.32
2023-01-12T22:06:49.232Z,0.73
2023-01-12T22:09:15.864Z,0.45
2023-01-12T22:11:42.553Z,0.20
2023-01-12T22:14:09.325Z,0.20
2023-01-12T22:16:36.032Z,0.30
2023-01-12T22:19:03.559Z,0.25
2023-01-12T22:21:30.163Z,0.38
2023-01-12T22:23:56.838Z,0.25
2023-01-12T22:26:23.460Z,0.22
2023-01-12T22:28:50.157Z,0.25
2023-01-12T22:31:18.023Z,0.30
2023-01-12T22:33:47.047Z,0.43
2023-01-12T22:36:13.899Z,0.40
2023-01-12T22:38:41.991Z,0.30
2023-01-12T22:41:10.517Z,0.43
2023-01-12T22:43:40.456Z,0.47
2023-01-12T22:46:19.059Z,0.43
2023-01-12T22:48:51.163Z,0.45
2023-01-12T22:51:20.733Z,0.52
2023-01-12T22:53:48.089Z,0.60
2023-01-12T22:56:15.135Z,0.60
2023-01-12T22:58:47.326Z,0.90
2023-01-12T23:01:15.527Z,0.80
2023-01-12T23:03:42.514Z,0.65
2023-01-12T23:06:14.365Z,0.75
2023-01-12T23:08:42.847Z,0.45
2023-01-12T23:11:16.069Z,0.85
2023-01-12T23:13:44.029Z,0.88
2023-01-12T23:16:11.712Z,0.75
2023-01-12T23:18:39.936Z,1.02
2023-01-12T23:21:16.710Z,0.80
2023-01-12T23:23:46.179Z,0.85
2023-01-12T23:26:15.925Z,0.90
2023-01-12T23:28:47.860Z,0.73
2023-01-12T23:31:17.334Z,0.80
2023-01-12T23:33:44.161Z,0.80
2023-01-12T23:36:17.196Z,0.95
2023-01-12T23:38:43.861Z,0.70
2023-01-12T23:41:19.031Z,0.80
2023-01-12T23:43:47.218Z,1.00
2023-01-12T23:46:17.066Z,0.93
2023-01-12T23:48:44.071Z,0.70
2023-01-12T23:51:10.927Z,0.60
2023-01-12T23:53:37.515Z,0.70
2023-01-12T23:56:09.638Z,0.85
2023-01-12T23:58:36.627Z,0.80
